Time;durP1;ratioP1;P1;durP2;ratioP2;P2;SDS_P1;SDS_P2;PMS_P1;PMS_P2;Temp;Humidity;BMP_temperature;BMP_pressure;BME280_temperature;BME280_humidity;BME280_pressure;Samples;Min_cycle;Max_cycle;Signal;HPM_P1;HPM_P2
2021/04/02 00:00:46;;;;;;;32.57;16.37;;;;;;;13.34;44.74;98462.52;114496;1206;103547;-70
2021/04/02 00:03:13;;;;;;;31.60;16.20;;;;;;;13.30;44.57;98464.62;114508;1206;103088;-71
2021/04/02 00:05:41;;;;;;;33.20;17.37;;;;;;;13.26;44.75;98465.89;114505;1206;103197;-70
2021/04/02 00:08:08;;;;;;;33.50;16.80;;;;;;;13.21;44.71;98466.33;114493;1206;103089;-70
2021/04/02 00:10:57;;;;;;;32.45;16.30;;;;;;;13.15;44.78;98466.90;114523;1206;103089;-68
2021/04/02 00:13:30;;;;;;;29.85;15.70;;;;;;;13.12;44.89;98459.17;114474;1206;103542;-70
2021/04/02 00:15:58;;;;;;;31.85;17.05;;;;;;;13.12;44.97;98455.67;114517;1206;103619;-69
2021/04/02 00:18:27;;;;;;;31.05;16.25;;;;;;;13.09;45.04;98454.11;114470;1206;103182;-70
2021/04/02 00:20:57;;;;;;;32.80;15.80;;;;;;;13.04;45.01;98451.89;114471;1206;103104;-70
2021/04/02 00:23:26;;;;;;;31.70;15.20;;;;;;;13.01;45.23;98462.02;114506;1206;103088;-72
2021/04/02 00:25:54;;;;;;;35.87;17.00;;;;;;;12.95;45.17;98456.27;114524;1206;103050;-71
2021/04/02 00:28:24;;;;;;;;;;;;;;;12.91;45.25;98454.00;114538;1206;103158;-71
2021/04/02 00:30:55;;;;;;;32.33;16.80;;;;;;;12.84;45.18;98451.06;114547;1205;103172;-70
2021/04/02 00:33:25;;;;;;;34.10;17.10;;;;;;;12.77;45.35;98452.61;114502;1206;103156;-70
2021/04/02 00:35:53;;;;;;;35.35;17.35;;;;;;;12.70;45.21;98447.00;114531;1205;103092;-70
2021/04/02 00:38:20;;;;;;;33.45;17.05;;;;;;;12.60;45.48;98451.48;114524;1206;103198;-70
2021/04/02 00:40:52;;;;;;;36.60;18.10;;;;;;;12.51;45.55;98451.33;114482;1205;103085;-71
2021/04/02 00:43:22;;;;;;;35.73;18.83;;;;;;;12.42;45.32;98454.86;114515;1205;103174;-70
2021/04/02 00:45:49;;;;;;;37.10;18.60;;;;;;;12.32;45.66;98459.33;114485;1205;103101;-72
2021/04/02 00:48:16;;;;;;;34.90;17.95;;;;;;;12.20;45.57;98453.28;114531;1206;103079;-69
2021/04/02 00:51:09;;;;;;;35.63;19.70;;;;;;;12.11;45.88;98446.92;114506;1206;103129;-71
2021/04/02 00:53:40;;;;;;;34.70;18.00;;;;;;;12.04;46.14;98445.78;114514;1206;103152;-71
2021/04/02 00:56:09;;;;;;;38.10;18.20;;;;;;;12.02;46.19;98447.77;114515;1206;103239;-72
2021/04/02 00:58:37;;;;;;;34.40;17.35;;;;;;;11.99;46.08;98443.53;114532;1206;103217;-70
2021/04/02 01:01:06;;;;;;;35.10;16.50;;;;;;;11.98;46.21;98443.65;114505;1206;103117;-71
2021/04/02 01:03:34;;;;;;;34.60;16.50;;;;;;;11.95;46.21;98442.08;114472;1206;103152;-71
2021/04/02 01:06:05;;;;;;;34.00;16.20;;;;;;;11.93;46.11;98441.38;114402;1206;103062;-71
2021/04/02 01:08:37;;;;;;;34.80;16.27;;;;;;;11.91;46.50;98435.34;114402;1205;103174;-71
2021/04/02 01:11:10;;;;;;;37.50;17.50;;;;;;;11.91;46.67;98438.00;114451;1206;103191;-74
2021/04/02 01:13:41;;;;;;;35.73;17.17;;;;;;;11.88;46.53;98448.92;114425;1205;103162;-73
2021/04/02 01:16:24;;;;;;;34.30;16.50;;;;;;;11.82;46.81;98444.16;114833;1206;103539;-71
2021/04/02 01:18:53;;;;;;;31.60;16.80;;;;;;;11.79;46.60;98445.27;114489;1206;103046;-71
2021/04/02 01:21:33;;;;;;;32.75;16.00;;;;;;;11.76;46.85;98449.05;114502;1206;103088;-71
2021/04/02 01:24:29;;;;;;;34.30;17.70;;;;;;;11.76;46.95;98446.39;114457;1206;103169;-70
2021/04/02 01:27:29;;;;;;;37.27;17.53;;;;;;;11.74;47.17;98439.48;114507;1206;103152;-71
2021/04/02 01:30:04;;;;;;;33.60;16.97;;;;;;;11.70;47.25;98440.73;114271;1205;103262;-71
2021/04/02 01:32:41;;;;;;;34.45;16.85;;;;;;;11.69;47.17;98449.70;114533;1206;103079;-71
2021/04/02 01:35:15;;;;;;;33.05;16.60;;;;;;;11.63;47.27;98440.44;114517;1206;103075;-72
2021/04/02 01:37:54;;;;;;;31.00;16.70;;;;;;;11.57;47.25;98448.95;114468;1206;103511;-72
2021/04/02 01:40:23;;;;;;;30.70;15.80;;;;;;;11.51;47.45;98445.02;114497;1206;103078;-71
2021/04/02 01:42:52;;;;;;;32.70;17.60;;;;;;;11.48;47.52;98442.62;114492;1206;103168;-72
2021/04/02 01:45:21;;;;;;;32.80;17.10;;;;;;;11.49;47.74;98438.98;114521;1206;103142;-71
2021/04/02 01:47:50;;;;;;;34.30;17.10;;;;;;;11.50;47.79;98438.00;114508;1204;104515;-72
2021/04/02 01:50:20;;;;;;;32.40;15.65;;;;;;;11.47;47.73;98433.77;114509;1206;103047;-71
2021/04/02 01:52:49;;;;;;;35.50;16.70;;;;;;;11.46;47.88;98431.25;114517;1206;103075;-71
2021/04/02 01:55:17;;;;;;;32.60;17.00;;;;;;;11.45;47.95;98433.05;114521;1206;103256;-71
2021/04/02 01:57:47;;;;;;;33.00;16.10;;;;;;;11.44;48.04;98434.03;114559;1206;103043;-71
2021/04/02 02:00:24;;;;;;;33.75;16.00;;;;;;;11.45;48.36;98438.38;114552;1206;103596;-72
2021/04/02 02:02:57;;;;;;;29.80;16.30;;;;;;;11.43;48.20;98445.66;114512;1206;103250;-72
2021/04/02 02:05:25;;;;;;;30.80;15.40;;;;;;;11.39;48.12;98443.41;114508;1206;103229;-72
2021/04/02 02:07:53;;;;;;;31.20;15.80;;;;;;;11.29;48.13;98441.53;114506;1206;103136;-70
2021/04/02 02:10:22;;;;;;;35.00;17.45;;;;;;;11.28;48.52;98439.84;114563;1206;103155;-71
2021/04/02 02:12:50;;;;;;;33.95;16.40;;;;;;;11.25;48.40;98439.27;114548;1206;103159;-71
2021/04/02 02:15:18;;;;;;;32.70;17.03;;;;;;;11.21;48.64;98437.84;114504;1205;103164;-71
2021/04/02 02:18:08;;;;;;;31.50;15.10;;;;;;;11.18;48.68;98441.63;114544;1206;103152;-71
2021/04/02 02:20:39;;;;;;;31.40;16.00;;;;;;;11.14;48.81;98438.36;114502;1206;103500;-71
2021/04/02 02:23:09;;;;;;;34.55;17.10;;;;;;;11.13;48.88;98449.16;114519;1206;103056;-71
2021/04/02 02:25:36;;;;;;;32.30;16.70;;;;;;;11.11;48.86;98446.61;114533;1205;103181;-70
2021/04/02 02:28:04;;;;;;;31.00;14.95;;;;;;;11.06;48.87;98446.15;114498;1206;103092;-71
2021/04/02 02:30:33;;;;;;;30.70;15.25;;;;;;;11.01;48.93;98446.55;114549;1206;103264;-70
2021/04/02 02:33:00;;;;;;;35.40;16.00;;;;;;;10.99;49.04;98437.02;114528;1206;103078;-72
2021/04/02 02:35:28;;;;;;;32.80;16.80;;;;;;;10.96;48.89;98451.41;114555;1205;103073;-71
2021/04/02 02:37:58;;;;;;;32.80;17.10;;;;;;;10.94;49.28;98452.53;114530;1206;103210;-69
2021/04/02 02:40:31;;;;;;;33.17;16.33;;;;;;;10.92;49.25;98457.14;114524;1206;103054;-71
2021/04/02 02:43:00;;;;;;;32.07;16.23;;;;;;;10.88;49.35;98459.19;114532;1206;103638;-70
2021/04/02 02:45:29;;;;;;;32.45;16.25;;;;;;;10.86;49.44;98455.81;114521;1206;103158;-70
2021/04/02 02:47:56;;;;;;;31.80;16.80;;;;;;;10.82;49.62;98447.26;114542;1206;103050;-70
2021/04/02 02:50:26;;;;;;;32.30;16.90;;;;;;;10.82;49.75;98454.38;114477;1206;103172;-71
2021/04/02 02:52:54;;;;;;;33.25;16.55;;;;;;;10.82;49.68;98451.72;114508;1206;103079;-70
2021/04/02 02:55:25;;;;;;;34.43;16.83;;;;;;;10.82;49.72;98462.36;114530;1206;103133;-69
2021/04/02 02:57:55;;;;;;;30.00;16.30;;;;;;;10.81;49.86;98463.33;114506;1206;103098;-71
2021/04/02 03:00:26;;;;;;;36.03;18.17;;;;;;;10.78;49.86;98459.13;114518;1206;103156;-70
2021/04/02 03:02:58;;;;;;;35.90;18.00;;;;;;;10.75;49.96;98464.70;114475;1206;103172;-69
2021/04/02 03:05:28;;;;;;;32.20;17.15;;;;;;;10.70;49.83;98464.23;114499;1206;103127;-69
2021/04/02 03:08:01;;;;;;;33.40;18.10;;;;;;;10.66;50.00;98470.78;114481;1206;103146;-72
2021/04/02 03:10:31;;;;;;;31.47;17.33;;;;;;;10.59;49.89;98465.13;114521;1206;103618;-71
2021/04/02 03:13:01;;;;;;;38.10;18.40;;;;;;;10.55;50.10;98467.21;114546;1206;103555;-72
2021/04/02 03:15:29;;;;;;;38.30;20.30;;;;;;;10.52;50.28;98464.80;114526;1206;103044;-68
2021/04/02 03:18:06;;;;;;;35.10;18.30;;;;;;;10.49;50.28;98473.03;114460;1206;103178;-70
2021/04/02 03:20:38;;;;;;;36.35;18.75;;;;;;;10.46;50.46;98461.78;114551;1205;103121;-71
2021/04/02 03:23:07;;;;;;;33.73;17.87;;;;;;;10.44;50.48;98472.55;114505;1206;103143;-70
2021/04/02 03:25:35;;;;;;;29.50;17.00;;;;;;;10.43;50.55;98477.02;114596;1206;103212;-70
2021/04/02 03:28:04;;;;;;;34.40;19.55;;;;;;;10.43;50.71;98476.19;114564;1206;103073;-70
2021/04/02 03:30:32;;;;;;;32.90;18.95;;;;;;;10.45;50.79;98473.39;114489;1206;103136;-71
2021/04/02 03:33:09;;;;;;;42.70;18.93;;;;;;;10.44;50.80;98472.55;114497;1206;103088;-71
2021/04/02 03:35:37;;;;;;;35.10;18.60;;;;;;;10.43;51.02;98476.19;114530;1206;103092;-70
2021/04/02 03:38:08;;;;;;;34.50;19.50;;;;;;;10.40;50.85;98479.92;114521;1206;103089;-69
2021/04/02 03:40:36;;;;;;;38.67;20.23;;;;;;;10.34;51.03;98479.55;114544;1206;103178;-72
2021/04/02 03:43:06;;;;;;;37.90;20.80;;;;;;;10.31;51.11;98479.80;114506;1206;103153;-70
2021/04/02 03:45:34;;;;;;;38.00;20.20;;;;;;;10.30;51.33;98484.29;114517;1206;103050;-70
2021/04/02 03:48:05;;;;;;;37.35;20.70;;;;;;;10.27;51.47;98482.70;114502;1206;103170;-69
2021/04/02 03:50:38;;;;;;;36.30;21.30;;;;;;;10.26;51.63;98488.16;114534;1205;103514;-72
2021/04/02 03:53:24;;;;;;;34.35;20.30;;;;;;;10.24;51.78;98482.95;114530;1206;103052;-74
2021/04/02 03:55:54;;;;;;;36.45;20.25;;;;;;;10.22;51.54;98494.69;114497;1205;103106;-72
2021/04/02 03:58:23;;;;;;;36.40;18.45;;;;;;;10.17;51.60;98491.55;114537;1206;103049;-72
2021/04/02 04:01:07;;;;;;;34.35;19.45;;;;;;;10.10;51.81;98493.87;114539;1206;103065;-71
2021/04/02 04:03:37;;;;;;;32.80;17.40;;;;;;;10.03;51.68;98501.46;114535;1205;103153;-74
2021/04/02 04:06:07;;;;;;;26.55;14.35;;;;;;;9.89;51.84;98507.05;114513;1206;103284;-73
2021/04/02 04:08:36;;;;;;;27.30;14.00;;;;;;;9.74;51.57;98519.73;114481;1206;103191;-71
2021/04/02 04:11:05;;;;;;;25.60;11.45;;;;;;;9.59;51.53;98514.63;114499;1205;103040;-71
2021/04/02 04:13:34;;;;;;;22.45;10.65;;;;;;;9.39;51.48;98516.17;114391;1206;103208;-71
2021/04/02 04:16:04;;;;;;;21.63;10.37;;;;;;;9.22;51.79;98520.95;114428;1206;103184;-71
2021/04/02 04:18:34;;;;;;;22.10;9.05;;;;;;;9.07;51.46;98527.44;114544;1205;103239;-72
2021/04/02 04:21:05;;;;;;;23.85;10.30;;;;;;;8.92;51.82;98537.39;114352;1206;103085;-72
2021/04/02 04:23:36;;;;;;;23.85;10.95;;;;;;;8.81;52.10;98542.64;114469;1206;103073;-71
2021/04/02 04:26:05;;;;;;;24.70;10.80;;;;;;;8.69;52.21;98550.53;114475;1206;103541;-71
2021/04/02 04:28:37;;;;;;;21.90;10.00;;;;;;;8.65;52.13;98557.01;114515;1205;103021;-71
2021/04/02 04:31:07;;;;;;;20.90;9.70;;;;;;;8.55;52.09;98564.80;114467;1206;103242;-74
2021/04/02 04:33:36;;;;;;;19.20;8.25;;;;;;;8.44;52.43;98570.84;114427;1206;103076;-71
2021/04/02 04:36:06;;;;;;;16.97;7.50;;;;;;;8.35;52.22;98580.28;114443;1205;103091;-72
2021/04/02 04:38:36;;;;;;;13.47;6.80;;;;;;;8.20;52.40;98589.34;114445;1206;103152;-74
2021/04/02 04:41:05;;;;;;;16.00;6.90;;;;;;;8.11;52.37;98596.14;114464;1206;103095;-71
2021/04/02 04:43:33;;;;;;;17.45;6.85;;;;;;;8.01;52.66;98592.44;114508;1206;103265;-72
2021/04/02 04:46:00;;;;;;;12.35;6.20;;;;;;;7.89;52.63;98599.44;114466;1205;103082;-72
2021/04/02 04:48:29;;;;;;;13.50;6.20;;;;;;;7.75;52.23;98603.02;114451;1206;103161;-70
2021/04/02 04:50:58;;;;;;;10.80;5.50;;;;;;;7.58;52.29;98609.45;114465;1206;104670;-70
2021/04/02 04:53:30;;;;;;;10.10;5.60;;;;;;;7.47;52.31;98607.55;114429;1206;103098;-70
2021/04/02 04:56:02;;;;;;;10.90;6.05;;;;;;;7.35;52.31;98611.87;114471;1205;103088;-70
2021/04/02 04:58:32;;;;;;;12.37;6.73;;;;;;;7.24;52.41;98635.53;114315;1205;103137;-72
2021/04/02 05:01:08;;;;;;;11.05;5.75;;;;;;;7.12;52.45;98634.55;114426;1206;103053;-71
2021/04/02 05:03:37;;;;;;;11.45;6.30;;;;;;;7.04;52.83;98639.48;114412;1206;103098;-72
2021/04/02 05:06:07;;;;;;;11.90;6.20;;;;;;;7.02;52.93;98646.67;114453;1206;103092;-70
2021/04/02 05:08:45;;;;;;;10.10;5.85;;;;;;;6.98;52.97;98646.87;114441;1206;103702;-71
2021/04/02 05:11:17;;;;;;;11.00;5.60;;;;;;;6.92;52.94;98649.94;114471;1206;103078;-71
2021/04/02 05:13:47;;;;;;;10.65;5.95;;;;;;;6.91;53.07;98655.30;114497;1206;103107;-74
2021/04/02 05:16:15;;;;;;;11.10;5.70;;;;;;;6.84;52.88;98652.22;114398;1206;103133;-73
2021/04/02 05:18:45;;;;;;;7.90;5.30;;;;;;;6.73;53.10;98652.05;114437;1206;103082;-72
2021/04/02 05:21:13;;;;;;;9.95;5.60;;;;;;;6.67;53.20;98654.13;114468;1206;103098;-71
2021/04/02 05:23:41;;;;;;;8.90;5.25;;;;;;;6.63;53.23;98662.36;114462;1206;103166;-72
2021/04/02 05:26:13;;;;;;;9.30;5.25;;;;;;;6.52;53.14;98663.88;114397;1206;103085;-71
2021/04/02 05:28:42;;;;;;;8.50;5.00;;;;;;;6.42;53.16;98657.45;114429;1206;103198;-72
2021/04/02 05:31:10;;;;;;;10.60;5.65;;;;;;;6.35;53.29;98677.27;114404;1206;103051;-71
2021/04/02 05:33:37;;;;;;;10.70;5.30;;;;;;;6.27;53.25;98672.47;114453;1206;103248;-72
2021/04/02 05:36:06;;;;;;;9.15;4.95;;;;;;;6.27;53.67;98680.39;114417;1206;103552;-70
2021/04/02 05:38:34;;;;;;;10.70;5.10;;;;;;;6.26;53.65;98683.97;114425;1206;103069;-71
2021/04/02 05:41:06;;;;;;;9.33;5.30;;;;;;;6.27;53.66;98690.95;114452;1205;103086;-70
2021/04/02 05:43:47;;;;;;;9.40;5.35;;;;;;;6.28;53.64;98695.30;114443;1206;103114;-71
2021/04/02 05:46:15;;;;;;;9.70;5.60;;;;;;;6.28;53.97;98695.30;114373;1206;103162;-71
2021/04/02 05:48:45;;;;;;;10.80;5.50;;;;;;;6.25;54.12;98701.63;114432;1205;103120;-72
2021/04/02 05:51:12;;;;;;;12.67;5.97;;;;;;;6.25;53.85;98701.63;114434;1206;103204;-71
2021/04/02 05:53:42;;;;;;;10.85;5.65;;;;;;;6.27;53.84;98708.61;114465;1206;103086;-71
2021/04/02 05:56:11;;;;;;;8.85;4.75;;;;;;;6.23;53.87;98711.44;114470;1206;103031;-72
2021/04/02 05:58:39;;;;;;;7.13;4.37;;;;;;;6.16;53.91;98709.23;114479;1206;103239;-71
2021/04/02 06:01:06;;;;;;;7.15;4.70;;;;;;;6.07;53.95;98722.08;114527;1206;103130;-71
2021/04/02 06:03:33;;;;;;;11.50;5.25;;;;;;;6.04;53.91;98722.26;114487;1206;103082;-70
2021/04/02 06:06:00;;;;;;;13.25;6.15;;;;;;;5.99;54.24;98729.56;114486;1206;103083;-73
2021/04/02 06:08:27;;;;;;;14.10;6.50;;;;;;;5.99;53.78;98726.06;114466;1206;103050;-72
2021/04/02 06:10:55;;;;;;;11.33;5.50;;;;;;;5.98;54.13;98729.64;114449;1205;103156;-70
2021/04/02 06:13:23;;;;;;;10.10;4.70;;;;;;;6.00;54.32;98730.40;114517;1206;103095;-71
2021/04/02 06:15:51;;;;;;;7.95;4.35;;;;;;;5.97;54.40;98736.73;114459;1205;103178;-71
2021/04/02 06:18:25;;;;;;;9.55;4.30;;;;;;;5.96;54.49;98733.22;114518;1206;103094;-73
2021/04/02 06:20:56;;;;;;;7.00;4.10;;;;;;;5.99;54.34;98732.20;114552;1205;103063;-73
2021/04/02 06:23:26;;;;;;;6.20;3.60;;;;;;;5.95;54.56;98730.69;114506;1206;103181;-71
2021/04/02 06:26:02;;;;;;;6.25;3.65;;;;;;;5.87;54.41;98746.12;114495;1206;103054;-70
2021/04/02 06:28:35;;;;;;;7.67;4.00;;;;;;;5.83;54.25;98737.54;114489;1206;103128;-72
2021/04/02 06:31:13;;;;;;;8.07;3.63;;;;;;;5.80;54.28;98737.72;114462;1206;103137;-79
2021/04/02 06:33:40;;;;;;;;;;;;;;;5.76;54.94;98754.67;114527;1206;101212;-70
2021/04/02 06:36:15;;;;;;;5.35;3.35;;;;;;;5.75;54.86;98743.25;114455;1206;103076;-72
2021/04/02 06:38:45;;;;;;;6.65;3.55;;;;;;;5.77;54.60;98754.56;114409;1206;103140;-74
2021/04/02 06:41:15;;;;;;;8.10;3.95;;;;;;;5.78;55.04;98750.98;114386;1205;103503;-73
2021/04/02 06:43:44;;;;;;;8.50;4.30;;;;;;;5.81;54.97;98755.25;114340;1206;103146;-74
2021/04/02 06:46:15;;;;;;;7.60;4.10;;;;;;;5.86;54.82;98755.84;114396;1206;101471;-73
2021/04/02 06:48:41;;;;;;;7.30;4.00;;;;;;;5.91;54.83;98748.47;114334;1206;103084;-73
2021/04/02 06:51:17;;;;;;;6.65;4.00;;;;;;;5.94;55.01;98740.38;114391;1205;103248;-74
2021/04/02 06:53:53;;;;;;;10.85;4.15;;;;;;;5.96;54.84;98740.30;114541;1206;103082;-74
2021/04/02 06:56:22;;;;;;;8.75;4.15;;;;;;;5.95;54.89;98743.88;114497;1206;103124;-75
2021/04/02 06:58:52;;;;;;;8.40;4.25;;;;;;;6.00;55.20;98731.30;114578;1206;103065;-72
2021/04/02 07:01:23;;;;;;;10.45;4.95;;;;;;;6.06;55.31;98733.58;114521;1206;103050;-73
2021/04/02 07:03:52;;;;;;;8.75;4.10;;;;;;;6.09;55.12;98738.67;114521;1206;103085;-72
2021/04/02 07:06:21;;;;;;;9.25;4.10;;;;;;;6.08;55.30;98744.90;114533;1206;103207;-73
2021/04/02 07:08:48;;;;;;;8.95;4.05;;;;;;;6.09;55.28;98743.09;114530;1206;103057;-73
2021/04/02 07:11:18;;;;;;;12.85;5.55;;;;;;;6.15;55.36;98748.02;114530;1206;103538;-73
2021/04/02 07:13:54;;;;;;;10.60;5.25;;;;;;;6.17;55.15;98753.19;114529;1206;103209;-73
2021/04/02 07:16:23;;;;;;;72.15;38.90;;;;;;;6.22;55.29;98740.56;114503;1206;103092;-72
2021/04/02 07:18:50;;;;;;;28.70;13.00;;;;;;;6.31;55.46;98737.38;114556;1206;103053;-71
2021/04/02 07:21:18;;;;;;;13.70;5.20;;;;;;;6.39;55.44;98743.05;114524;1206;103082;-71
2021/04/02 07:23:46;;;;;;;8.60;3.67;;;;;;;6.49;55.28;98753.89;114467;1206;103158;-74
2021/04/02 07:26:14;;;;;;;6.03;3.00;;;;;;;6.55;55.35;98750.89;114487;1206;103165;-75
2021/04/02 07:28:46;;;;;;;7.50;4.00;;;;;;;6.68;55.27;98758.07;114484;1206;103062;-73
2021/04/02 07:31:15;;;;;;;11.00;3.70;;;;;;;6.75;55.49;98758.53;114540;1206;103053;-71
2021/04/02 07:33:44;;;;;;;16.17;5.97;;;;;;;7.48;54.88;98754.80;114446;1205;103083;-73
2021/04/02 07:36:13;;;;;;;16.60;5.80;;;;;;;7.61;55.38;98762.78;114542;1206;103538;-71
2021/04/02 07:38:41;;;;;;;15.90;5.90;;;;;;;7.71;55.64;98757.75;114476;1206;103081;-71
2021/04/02 07:41:17;;;;;;;12.40;4.60;;;;;;;7.75;55.71;98768.03;114432;1206;103079;-71
2021/04/02 07:43:57;;;;;;;9.40;3.90;;;;;;;7.76;55.67;98766.21;114478;1205;103053;-71
2021/04/02 07:46:30;;;;;;;8.73;3.70;;;;;;;8.39;54.60;98769.09;114503;1206;103152;-73
2021/04/02 07:49:07;;;;;;;4.70;2.80;;;;;;;10.62;53.27;98756.58;114490;1206;103074;-72
2021/04/02 07:51:44;;;;;;;3.05;2.35;;;;;;;12.55;52.97;98744.51;114461;1206;103047;-72
2021/04/02 07:54:42;;;;;;;4.80;2.70;;;;;;;14.29;52.72;98736.13;114466;1206;103078;-72
2021/04/02 07:57:12;;;;;;;18.80;7.30;;;;;;;16.00;52.44;98743.90;114467;1206;103182;-72
2021/04/02 07:59:41;;;;;;;6.25;3.05;;;;;;;16.10;53.58;98746.48;114480;1205;103082;-72
2021/04/02 08:02:12;;;;;;;4.00;2.40;;;;;;;15.74;54.45;98746.47;114478;1206;103146;-73
2021/04/02 08:04:53;;;;;;;4.20;2.70;;;;;;;15.38;54.48;98757.16;114478;1206;103279;-72
2021/04/02 08:07:41;;;;;;;6.10;3.00;;;;;;;16.32;53.06;98755.02;114433;1205;103212;-71
2021/04/02 08:10:14;;;;;;;5.15;3.10;;;;;;;17.76;52.56;98772.34;114478;1206;103155;-71
2021/04/02 08:12:42;;;;;;;7.25;2.75;;;;;;;18.02;53.24;98766.03;114498;1206;103092;-72
2021/04/02 08:15:12;;;;;;;4.95;3.40;;;;;;;18.09;53.52;98775.13;114478;1206;103127;-71
2021/04/02 08:17:40;;;;;;;7.10;3.50;;;;;;;17.47;53.65;98773.63;114532;1206;103127;-70
2021/04/02 08:20:17;;;;;;;5.35;3.25;;;;;;;16.93;54.00;98782.77;114413;1205;103714;-74
2021/04/02 08:22:48;;;;;;;5.30;3.10;;;;;;;16.36;53.75;98788.61;114448;1205;103079;-73
2021/04/02 08:25:17;;;;;;;3.90;2.65;;;;;;;15.77;53.55;98789.91;114443;1206;103085;-73
2021/04/02 08:27:46;;;;;;;4.50;3.00;;;;;;;15.39;53.49;98793.69;114466;1206;103081;-73
2021/04/02 08:30:16;;;;;;;6.80;3.40;;;;;;;15.51;52.70;98794.31;114461;1206;103173;-73
2021/04/02 08:32:49;;;;;;;6.70;3.17;;;;;;;15.16;52.94;98789.56;114470;1206;103056;-72
2021/04/02 08:35:19;;;;;;;5.35;3.25;;;;;;;15.35;52.52;98798.48;114425;1206;103059;-73
2021/04/02 08:38:02;;;;;;;4.60;3.20;;;;;;;15.95;52.27;98796.30;114358;1206;103139;-72
2021/04/02 08:40:30;;;;;;;5.85;2.95;;;;;;;16.60;52.19;98782.58;113954;1206;102272;-71
2021/04/02 08:43:10;;;;;;;4.60;2.50;;;;;;;16.19;52.23;98799.22;114267;1206;103120;-73
2021/04/02 08:45:57;;;;;;;5.57;3.00;;;;;;;15.90;52.54;98804.81;114278;1205;103118;-72
2021/04/02 08:48:24;;;;;;;8.30;3.20;;;;;;;16.19;52.14;98793.86;114274;1206;103072;-72
2021/04/02 08:50:52;;;;;;;6.40;3.30;;;;;;;17.19;51.71;98791.83;114408;1206;103577;-71
2021/04/02 08:53:19;;;;;;;5.00;2.70;;;;;;;17.69;51.48;98803.62;114300;1206;103235;-71
2021/04/02 08:55:46;;;;;;;3.90;2.70;;;;;;;18.29;51.11;98799.00;114310;1206;103119;-72
2021/04/02 08:58:13;;;;;;;3.95;2.65;;;;;;;18.77;51.20;98788.34;114363;1206;103525;-74
2021/04/02 09:00:41;;;;;;;4.10;2.50;;;;;;;18.88;51.26;98798.77;114318;1206;103146;-72
2021/04/02 09:03:08;;;;;;;8.93;4.37;;;;;;;18.42;51.56;98804.73;114362;1206;103056;-71
2021/04/02 09:05:40;;;;;;;5.70;3.05;;;;;;;18.33;51.22;98802.22;114359;1206;103089;-71
2021/04/02 09:08:09;;;;;;;6.30;3.30;;;;;;;18.16;51.50;98810.27;114314;1206;103127;-70
2021/04/02 09:10:36;;;;;;;5.10;2.70;;;;;;;18.75;50.80;98799.30;114263;1206;103312;-73
2021/04/02 09:13:03;;;;;;;4.50;2.50;;;;;;;19.53;50.70;98800.61;114374;1205;103171;-71
2021/04/02 09:15:35;;;;;;;5.30;2.90;;;;;;;20.33;50.63;98790.48;114391;1206;103165;-70
2021/04/02 09:18:14;;;;;;;3.70;2.30;;;;;;;21.02;49.94;98786.78;114305;1206;103589;-73
2021/04/02 09:20:41;;;;;;;4.10;2.40;;;;;;;21.55;50.29;98783.95;114381;1206;103053;-74
2021/04/02 09:23:11;;;;;;;3.20;2.20;;;;;;;22.02;49.44;98791.75;114244;1206;103054;-79
2021/04/02 09:26:01;;;;;;;3.85;1.65;;;;;;;21.81;50.04;98790.72;115803;1206;101233;-77
2021/04/02 09:28:29;;;;;;;3.73;2.00;;;;;;;21.20;49.67;98793.69;115849;1205;101165;-71
2021/04/02 09:31:18;;;;;;;2.47;2.13;;;;;;;21.60;49.01;98799.61;115979;1205;100937;-73
2021/04/02 09:33:46;;;;;;;2.53;1.77;;;;;;;21.49;48.43;98797.38;115967;1205;101961;-71
2021/04/02 09:36:14;;;;;;;4.40;1.80;;;;;;;20.56;48.16;98795.02;115920;1205;101100;-71
2021/04/02 09:38:42;;;;;;;6.07;1.80;;;;;;;20.44;48.38;98784.64;115564;1206;103076;-70
2021/04/02 09:41:11;;;;;;;4.30;2.10;;;;;;;20.55;48.00;98790.64;114462;1206;103046;-70
2021/04/02 09:43:48;;;;;;;4.47;2.00;;;;;;;20.71;47.43;98798.56;114462;1206;103034;-72
2021/04/02 09:46:28;;;;;;;3.20;1.70;;;;;;;20.61;47.54;98800.69;114459;1206;103091;-73
2021/04/02 09:49:23;;;;;;;4.70;2.10;;;;;;;20.83;47.72;98796.28;114389;1205;103280;-72
2021/04/02 09:51:54;;;;;;;2.50;1.90;;;;;;;20.95;47.40;98792.10;114384;1206;103149;-71
2021/04/02 09:54:24;;;;;;;3.40;1.60;;;;;;;20.62;47.42;98799.66;114334;1206;103158;-72
2021/04/02 09:56:55;;;;;;;4.53;1.90;;;;;;;20.38;47.27;98791.59;114409;1206;103075;-70
2021/04/02 09:59:23;;;;;;;7.65;2.40;;;;;;;19.99;47.18;98792.58;114379;1206;103092;-72
2021/04/02 10:01:50;;;;;;;3.55;1.75;;;;;;;19.67;46.98;98788.22;114434;1206;103079;-71
2021/04/02 10:04:18;;;;;;;2.90;1.80;;;;;;;19.34;46.88;98781.98;114407;1206;103051;-73
2021/04/02 10:06:46;;;;;;;5.10;1.90;;;;;;;19.08;46.46;98782.25;114388;1206;103072;-71
2021/04/02 10:09:14;;;;;;;2.40;1.70;;;;;;;18.97;45.96;98786.13;114031;1205;103073;-69
2021/04/02 10:11:45;;;;;;;3.90;1.90;;;;;;;18.69;46.29;98781.13;114388;1206;103504;-70
2021/04/02 10:14:14;;;;;;;2.45;1.60;;;;;;;18.52;45.31;98787.56;114359;1206;103092;-71
2021/04/02 10:16:41;;;;;;;4.05;1.85;;;;;;;18.08;45.37;98786.04;114492;1205;103059;-70
2021/04/02 10:19:08;;;;;;;2.63;1.97;;;;;;;17.66;45.32;98793.19;114391;1206;103088;-72
2021/04/02 10:21:36;;;;;;;3.40;1.70;;;;;;;17.41;45.50;98790.41;114427;1206;103082;-72
2021/04/02 10:24:04;;;;;;;5.10;1.80;;;;;;;17.35;45.00;98789.22;114332;1206;103124;-72
2021/04/02 10:26:31;;;;;;;6.60;1.90;;;;;;;17.30;44.99;98798.78;114290;1206;103201;-71
2021/04/02 10:28:58;;;;;;;3.90;1.50;;;;;;;17.19;45.01;98789.14;114225;1205;103386;-69
2021/04/02 10:31:25;;;;;;;3.75;1.65;;;;;;;16.94;44.34;98791.69;114251;1206;103075;-70
2021/04/02 10:33:52;;;;;;;1.90;1.30;;;;;;;16.74;44.58;98791.89;114181;1205;101423;-70
2021/04/02 10:36:20;;;;;;;2.60;1.85;;;;;;;16.56;44.29;98783.06;114311;1206;103443;-71
2021/04/02 10:38:48;;;;;;;3.87;1.70;;;;;;;16.37;44.25;98791.15;114324;1206;103096;-72
2021/04/02 10:41:16;;;;;;;5.90;2.43;;;;;;;16.05;43.83;98783.66;114449;1206;103149;-71
2021/04/02 10:43:44;;;;;;;2.20;1.50;;;;;;;15.52;43.75;98785.28;114411;1206;103170;-70
2021/04/02 10:46:12;;;;;;;4.00;1.90;;;;;;;15.29;43.91;98791.89;114455;1206;103095;-71
2021/04/02 10:48:40;;;;;;;4.70;2.35;;;;;;;15.40;43.97;98780.13;114449;1206;103076;-68
2021/04/02 10:51:09;;;;;;;3.03;1.53;;;;;;;15.45;43.93;98785.05;114372;1205;103155;-71
2021/04/02 10:53:36;;;;;;;1.83;1.23;;;;;;;15.31;43.39;98775.66;114451;1205;103264;-75
2021/04/02 10:56:05;;;;;;;7.00;2.60;;;;;;;15.13;43.57;98773.78;114431;1205;103280;-70
2021/04/02 10:58:33;;;;;;;4.90;2.50;;;;;;;15.12;43.63;98771.23;114480;1206;103053;-69
2021/04/02 11:01:03;;;;;;;4.50;2.00;;;;;;;14.99;43.48;98777.80;114371;1206;103220;-72
2021/04/02 11:03:31;;;;;;;4.35;2.30;;;;;;;14.91;43.25;98768.79;114334;1205;102884;-74
2021/04/02 11:05:58;;;;;;;12.15;4.65;;;;;;;14.85;43.45;98768.41;114412;1206;103092;-69
2021/04/02 11:08:25;;;;;;;6.65;2.60;;;;;;;14.91;43.28;98774.14;114344;1206;103114;-79
2021/04/02 11:10:54;;;;;;;5.45;2.60;;;;;;;14.96;43.23;98772.73;114363;1206;103602;-74
2021/04/02 11:13:21;;;;;;;2.75;1.60;;;;;;;14.87;42.93;98784.32;114376;1206;103188;-76
2021/04/02 11:15:49;;;;;;;3.10;1.75;;;;;;;14.71;42.71;98769.70;114464;1206;103079;-72
2021/04/02 11:18:16;;;;;;;11.40;2.20;;;;;;;14.63;42.57;98768.72;114451;1206;103143;-72
2021/04/02 11:20:44;;;;;;;4.30;2.00;;;;;;;14.55;42.71;98769.45;114364;1206;103479;-70
2021/04/02 11:23:16;;;;;;;6.20;1.75;;;;;;;14.50;42.47;98767.19;114327;1206;103041;-70
2021/04/02 11:25:45;;;;;;;3.03;1.90;;;;;;;14.37;42.35;98772.02;114432;1206;103187;-69
2021/04/02 11:28:13;;;;;;;3.65;1.60;;;;;;;14.23;42.24;98767.97;114448;1206;103156;-72